Time;durP1;ratioP1;P1;durP2;ratioP2;P2;SDS_P1;SDS_P2;PMS_P1;PMS_P2;Temp;Humidity;BMP_temperature;BMP_pressure;BME280_temperature;BME280_humidity;BME280_pressure;Samples;Min_cycle;Max_cycle;Signal;HPM_P1;HPM_P2
2023/05/28 00:01:01;;;;;;;0.50;0.50;;;20.50;53.10;;;20.77;37.22;95286.31;5055944;28;20614;-49
2023/05/28 00:03:31;;;;;;;0.50;0.50;;;20.40;52.90;;;20.75;37.54;95280.44;5055657;28;20181;-52
2023/05/28 00:05:59;;;;;;;0.50;0.50;;;20.40;53.00;;;20.71;37.36;95273.97;5039349;28;20184;-48
2023/05/28 00:08:26;;;;;;;0.60;0.60;;;20.40;53.10;;;20.69;37.57;95276.06;5055713;28;20622;-49
2023/05/28 00:10:59;;;;;;;0.50;0.50;;;20.40;53.10;;;20.66;37.17;95265.91;5055708;28;20226;-48
2023/05/28 00:13:30;;;;;;;0.40;0.40;;;20.30;53.10;;;20.63;37.23;95270.66;5055395;28;20636;-48
2023/05/28 00:15:57;;;;;;;0.45;0.45;;;20.30;53.10;;;20.61;37.22;95270.09;5055591;28;20201;-50
2023/05/28 00:18:24;;;;;;;0.40;0.40;;;20.30;53.10;;;20.58;37.22;95264.44;5054871;28;20202;-48
2023/05/28 00:20:51;;;;;;;0.40;0.40;;;20.30;53.20;;;20.56;37.48;95263.91;5055765;28;20202;-48
2023/05/28 00:23:18;;;;;;;0.50;0.50;;;20.20;53.10;;;20.53;37.79;95259.88;5055694;28;20215;-49
2023/05/28 00:25:45;;;;;;;0.60;0.60;;;20.30;53.20;;;20.50;37.52;95256.91;5055289;28;20543;-48
2023/05/28 00:28:12;;;;;;;0.50;0.50;;;20.20;53.10;;;20.49;37.40;95261.41;5055358;28;20198;-49
2023/05/28 00:30:40;;;;;;;0.40;0.40;;;20.20;53.10;;;20.47;37.51;95258.19;5037879;28;20564;-49
2023/05/28 00:33:07;;;;;;;0.47;0.47;;;20.20;53.10;;;20.43;37.54;95251.72;5055492;28;20273;-50
2023/05/28 00:35:34;;;;;;;0.40;0.40;;;20.10;53.10;;;20.42;37.82;95247.44;5037526;28;20284;-49
2023/05/28 00:38:01;;;;;;;0.60;0.60;;;20.10;53.10;;;20.39;37.31;95243.41;5056026;28;20190;-48
2023/05/28 00:40:28;;;;;;;0.50;0.50;;;20.10;53.10;;;20.38;37.91;95244.47;5055423;28;20194;-52
2023/05/28 00:42:55;;;;;;;0.40;0.40;;;20.00;53.00;;;;;;5054168;28;20227;-51
2023/05/28 00:45:22;;;;;;;0.50;0.50;;;20.00;53.00;;;20.31;37.66;95234.00;5055018;28;20292;-48
2023/05/28 00:47:50;;;;;;;0.40;0.40;;;20.00;53.00;;;20.30;37.77;95236.91;5055064;28;20218;-48
2023/05/28 00:50:17;;;;;;;0.57;0.57;;;20.00;53.10;;;20.28;37.42;95231.81;5054980;28;20556;-48
2023/05/28 00:52:47;;;;;;;0.50;0.50;;;20.00;53.20;;;20.25;37.40;95224.31;5054883;28;20762;-48
2023/05/28 00:55:15;;;;;;;0.43;0.43;;;19.90;53.10;;;20.23;37.74;95230.97;5034249;28;20634;-50
2023/05/28 00:57:43;;;;;;;0.50;0.50;;;19.90;53.10;;;20.21;37.46;95220.53;5054952;28;20211;-50
2023/05/28 01:00:11;;;;;;;0.50;0.50;;;19.90;53.20;;;20.19;37.98;95216.50;5020987;28;20195;-50
2023/05/28 01:02:38;;;;;;;0.50;0.50;;;19.90;53.30;;;20.15;37.55;95221.50;5054692;28;20256;-51
2023/05/28 01:05:06;;;;;;;0.47;0.47;;;19.90;53.30;;;20.15;37.40;95216.19;5054163;28;20547;-50
2023/05/28 01:07:33;;;;;;;0.43;0.43;;;19.90;53.30;;;20.11;37.65;95215.88;5037281;28;20232;-51
2023/05/28 01:10:01;;;;;;;0.47;0.47;;;19.80;53.10;;;20.09;37.63;95225.97;5037288;28;20627;-50
2023/05/28 01:12:31;;;;;;;0.40;0.40;;;19.80;53.20;;;20.07;38.02;95222.75;5036290;28;20215;-53
2023/05/28 01:14:58;;;;;;;0.40;0.40;;;19.80;53.20;;;20.05;37.46;95224.03;5037620;28;20193;-53
2023/05/28 01:17:25;;;;;;;0.57;0.57;;;19.80;53.20;;;20.02;37.65;95225.34;5054744;28;20212;-53
2023/05/28 01:19:53;;;;;;;0.50;0.50;;;19.80;53.20;;;20.00;37.50;95230.88;5037231;28;20684;-48
2023/05/28 01:22:28;;;;;;;0.50;0.50;;;19.70;53.10;;;19.97;37.43;95220.72;5037437;28;20202;-48
2023/05/28 01:24:56;;;;;;;0.40;0.40;;;19.70;53.20;;;19.95;37.72;95222.81;5020697;28;20199;-48
2023/05/28 01:27:24;;;;;;;0.50;0.50;;;19.70;53.20;;;19.94;37.66;95220.41;5020854;28;20200;-48
2023/05/28 01:29:51;;;;;;;0.50;0.50;;;19.70;53.20;;;19.91;38.01;95212.91;5021961;28;20210;-48
2023/05/28 01:32:18;;;;;;;0.60;0.60;;;19.60;53.20;;;19.88;38.05;95221.38;5040990;28;20195;-48
2023/05/28 01:34:46;;;;;;;0.43;0.43;;;19.60;53.20;;;19.85;38.19;95217.34;5058567;28;20186;-48
2023/05/28 01:37:16;;;;;;;0.55;0.55;;;19.60;53.20;;;19.82;38.12;95210.63;5041062;28;20207;-47
2023/05/28 01:39:46;;;;;;;0.50;0.50;;;19.50;53.20;;;19.80;38.04;95210.06;5041316;28;20253;-47
2023/05/28 01:42:14;;;;;;;0.50;0.50;;;19.50;53.20;;;19.79;38.15;95210.31;5041494;28;20229;-48
2023/05/28 01:44:42;;;;;;;0.52;0.52;;;19.50;53.30;;;19.76;38.00;95200.97;5041451;28;20495;-47
2023/05/28 01:47:11;;;;;;;0.50;0.50;;;19.50;53.40;;;19.75;37.54;95201.19;5041106;28;20241;-49
2023/05/28 01:49:39;;;;;;;0.50;0.50;;;19.50;53.40;;;19.73;37.76;95198.78;5041039;28;20201;-47
2023/05/28 01:52:08;;;;;;;0.50;0.50;;;19.50;53.40;;;19.72;37.75;95197.16;5057633;28;20647;-48
2023/05/28 01:54:35;;;;;;;0.50;0.50;;;19.50;53.40;;;19.70;37.60;95191.28;5040517;28;20234;-48
2023/05/28 01:57:03;;;;;;;0.43;0.43;;;19.40;53.30;;;19.68;38.35;95193.38;5058214;28;20624;-48
2023/05/28 01:59:30;;;;;;;0.50;0.50;;;19.40;53.30;;;19.66;37.78;95190.13;5039853;28;20201;-48
2023/05/28 02:01:57;;;;;;;0.40;0.40;;;19.40;53.40;;;19.63;37.73;95191.44;5040667;28;20232;-46
2023/05/28 02:04:25;;;;;;;0.50;0.50;;;19.40;53.40;;;19.63;37.84;95182.66;5058390;28;20228;-46
2023/05/28 02:06:52;;;;;;;0.52;0.52;;;19.40;53.40;;;19.60;38.35;95189.25;5058332;28;20195;-46
2023/05/28 02:09:19;;;;;;;0.50;0.50;;;19.40;53.40;;;19.58;37.84;95175.38;5057011;28;20601;-46
2023/05/28 02:11:46;;;;;;;0.40;0.40;;;19.40;53.40;;;19.57;37.69;95180.97;5057973;28;20245;-46
2023/05/28 02:14:16;;;;;;;0.52;0.52;;;19.30;53.40;;;19.56;38.10;95176.69;5040110;28;20631;-46
2023/05/28 02:16:52;;;;;;;0.50;0.50;;;19.30;53.40;;;19.52;38.28;95179.81;5040333;28;20632;-48
2023/05/28 02:19:20;;;;;;;0.50;0.50;;;19.30;53.50;;;19.52;38.37;95176.38;5056913;28;20207;-46
2023/05/28 02:21:47;;;;;;;0.50;0.50;;;19.20;53.30;;;19.50;38.27;95186.44;5040492;28;20188;-46
2023/05/28 02:24:14;;;;;;;0.40;0.40;;;19.30;53.40;;;19.49;38.18;95182.16;5058090;28;20188;-46
2023/05/28 02:26:41;;;;;;;0.47;0.47;;;19.20;53.30;;;19.49;38.07;95185.63;5037056;28;20288;-46
2023/05/28 02:29:08;;;;;;;0.40;0.40;;;19.20;53.20;;;19.46;38.07;95183.44;5053818;28;20196;-46
2023/05/28 02:31:35;;;;;;;0.45;0.45;;;19.20;53.30;;;19.44;37.85;95185.53;5057570;28;20219;-47
2023/05/28 02:34:02;;;;;;;0.50;0.50;;;19.20;53.40;;;19.42;38.17;95177.00;5057459;28;20306;-46
2023/05/28 02:36:30;;;;;;;0.50;0.50;;;19.10;53.30;;;19.40;38.08;95184.41;5057339;28;20187;-47
2023/05/28 02:38:57;;;;;;;0.60;0.60;;;19.20;53.50;;;19.39;38.52;95174.00;5039865;28;20635;-46
2023/05/28 02:41:26;;;;;;;0.40;0.40;;;19.20;53.50;;;19.36;37.86;95177.97;5039435;28;20197;-48
2023/05/28 02:43:55;;;;;;;0.43;0.43;;;19.10;53.30;;;19.35;38.34;95177.16;5039807;28;20223;-46
2023/05/28 02:46:22;;;;;;;0.40;0.40;;;19.10;53.40;;;19.32;37.88;95182.97;5040352;28;20208;-46
2023/05/28 02:48:49;;;;;;;0.40;0.40;;;19.10;53.40;;;19.31;38.36;95175.19;5039706;28;20291;-47
2023/05/28 02:51:19;;;;;;;0.50;0.50;;;19.10;53.40;;;19.29;38.02;95174.66;5040105;28;20204;-46
2023/05/28 02:53:54;;;;;;;0.40;0.40;;;19.10;54.70;;;19.27;38.06;95172.22;5039801;28;20241;-52
2023/05/28 02:56:23;;;;;;;0.50;0.50;;;19.10;53.40;;;19.25;38.04;95174.31;5056033;28;20209;-50
2023/05/28 02:58:52;;;;;;;0.40;0.40;;;19.00;53.40;;;19.23;38.09;95173.75;5039527;28;20191;-46
2023/05/28 03:01:20;;;;;;;0.40;0.40;;;19.00;53.40;;;19.20;37.93;95169.72;5035053;28;20233;-46
2023/05/28 03:03:47;;;;;;;0.45;0.45;;;19.00;53.30;;;19.21;38.27;95173.19;5019701;28;20200;-50
2023/05/28 03:06:14;;;;;;;0.50;0.50;;;19.00;53.30;;;19.19;38.42;95173.41;5035865;28;20200;-45
2023/05/28 03:08:48;;;;;;;0.70;0.70;;;19.00;53.40;;;19.17;38.44;95172.84;5019718;28;20708;-45
2023/05/28 03:11:15;;;;;;;0.60;0.60;;;19.00;53.50;;;19.16;38.08;95179.22;5037189;28;20208;-46
2023/05/28 03:13:42;;;;;;;0.50;0.50;;;19.00;53.50;;;19.12;38.47;95172.75;5036791;28;20204;-48
2023/05/28 03:16:09;;;;;;;0.50;0.50;;;18.90;53.50;;;19.11;38.17;95176.47;5019226;28;20192;-46
2023/05/28 03:18:36;;;;;;;0.45;0.45;;;18.90;53.50;;;19.09;38.10;95173.25;5019274;28;20188;-46
2023/05/28 03:21:05;;;;;;;0.50;0.50;;;18.90;53.50;;;19.07;38.52;95169.22;5035792;28;20269;-46
2023/05/28 03:23:34;;;;;;;0.50;0.50;;;18.90;53.50;;;19.05;38.05;95164.13;5019274;28;20295;-46
2023/05/28 03:26:12;;;;;;;0.50;0.50;;;18.90;53.50;;;19.03;38.06;95167.03;5019204;28;20273;-46
2023/05/28 03:28:40;;;;;;;0.50;0.50;;;18.80;53.50;;;19.03;38.41;95175.00;5019187;28;20212;-46
2023/05/28 03:31:30;;;;;;;0.50;0.50;;;18.90;54.80;;;18.97;38.08;95173.31;5028510;28;20544;-46
2023/05/28 03:33:59;;;;;;;0.50;0.50;;;18.80;53.50;;;18.96;38.21;95174.34;5018967;28;20216;-47
2023/05/28 03:36:27;;;;;;;0.50;0.50;;;18.80;53.50;;;18.96;38.73;95182.31;5018816;28;20292;-46
2023/05/28 03:38:54;;;;;;;0.60;0.60;;;18.80;53.60;;;18.94;38.59;95183.59;5018885;28;20200;-46
2023/05/28 03:41:25;;;;;;;0.40;0.40;;;18.80;54.70;;;18.93;38.65;95174.00;5019466;28;20518;-46
2023/05/28 03:43:52;;;;;;;0.50;0.50;;;18.80;53.60;;;18.91;38.42;95176.91;5018816;28;20657;-46
2023/05/28 03:46:19;;;;;;;0.50;0.50;;;18.80;53.60;;;18.91;38.42;95182.22;5018898;28;20539;-51
2023/05/28 03:48:46;;;;;;;0.50;0.50;;;18.70;53.50;;;18.90;38.66;95179.78;5018717;28;20211;-46
2023/05/28 03:51:14;;;;;;;0.45;0.45;;;18.70;53.70;;;18.88;38.32;95183.47;5018739;28;20196;-47
2023/05/28 03:53:41;;;;;;;0.50;0.50;;;18.70;53.70;;;18.87;38.51;95181.03;5017560;28;20251;-50
2023/05/28 03:56:08;;;;;;;0.50;0.50;;;18.70;53.80;;;18.85;38.81;95183.16;5036120;28;20227;-50
2023/05/28 03:58:35;;;;;;;0.47;0.47;;;18.70;53.80;;;18.84;38.50;95179.66;5018549;28;20306;-48
2023/05/28 04:01:02;;;;;;;0.57;0.57;;;18.70;53.80;;;18.84;38.68;95173.56;5020376;28;20195;-48
2023/05/28 04:03:30;;;;;;;0.50;0.50;;;18.70;53.80;;;18.84;39.01;95178.88;5054989;28;20225;-49
2023/05/28 04:05:57;;;;;;;0.40;0.40;;;18.70;53.90;;;18.83;38.77;95178.06;5038208;28;20638;-51
2023/05/28 04:08:25;;;;;;;0.40;0.40;;;18.70;54.00;;;18.82;38.94;95173.81;5038217;28;20375;-49
2023/05/28 04:10:52;;;;;;;0.40;0.40;;;18.60;53.90;;;18.81;39.10;95161.56;5039003;28;20199;-49
2023/05/28 04:13:19;;;;;;;0.40;0.40;;;18.70;54.10;;;18.80;39.20;95165.25;5038048;28;20219;-52
2023/05/28 04:15:46;;;;;;;0.50;0.50;;;18.70;54.20;;;18.79;39.14;95168.16;5038590;28;20265;-49
2023/05/28 04:18:13;;;;;;;0.50;0.50;;;18.60;54.10;;;18.80;39.16;95172.44;5037983;28;20257;-48
2023/05/28 04:20:42;;;;;;;0.45;0.45;;;18.60;54.10;;;18.78;39.08;95171.84;5038097;28;20207;-49
2023/05/28 04:23:09;;;;;;;0.50;0.50;;;18.60;54.10;;;18.79;38.62;95168.94;5038030;28;20202;-48
2023/05/28 04:25:36;;;;;;;0.50;0.50;;;18.60;54.20;;;18.79;39.26;95165.50;5037827;28;20191;-48
2023/05/28 04:28:04;;;;;;;0.50;0.50;;;18.60;54.20;;;18.77;38.83;95173.69;5037912;28;20192;-48
2023/05/28 04:30:32;;;;;;;0.40;0.40;;;18.60;54.40;;;18.76;38.91;95169.44;5037887;28;20196;-52
2023/05/28 04:33:00;;;;;;;0.50;0.50;;;18.60;54.40;;;18.76;39.43;95166.78;5037821;28;20660;-51
2023/05/28 04:35:27;;;;;;;0.50;0.50;;;18.60;54.50;;;18.76;39.23;95172.09;5037571;28;20191;-51
2023/05/28 04:37:54;;;;;;;0.50;0.50;;;18.60;54.60;;;18.74;39.33;95168.84;5037798;28;20269;-52
2023/05/28 04:40:21;;;;;;;0.40;0.40;;;18.60;54.60;;;18.73;39.64;95173.34;5055351;28;20234;-52
2023/05/28 04:42:48;;;;;;;0.50;0.50;;;18.60;54.70;;;18.73;39.17;95168.03;5055819;28;20253;-51
2023/05/28 04:45:17;;;;;;;0.50;0.50;;;18.60;54.80;;;18.73;39.83;95176.00;5037401;28;20199;-52
2023/05/28 04:47:45;;;;;;;0.50;0.50;;;18.60;54.90;;;18.73;39.74;95164.59;5054302;28;20592;-52
2023/05/28 04:50:13;;;;;;;0.40;0.40;;;18.60;54.90;;;18.72;39.39;95173.59;5021377;28;20511;-52
2023/05/28 04:52:40;;;;;;;0.50;0.50;;;18.60;55.00;;;18.71;39.73;95167.50;5037546;28;20195;-53
2023/05/28 04:55:07;;;;;;;0.40;0.40;;;18.60;56.20;;;18.72;39.51;95173.59;5055264;28;20253;-48
2023/05/28 04:57:34;;;;;;;0.40;0.40;;;18.60;54.90;;;18.72;40.00;95182.38;5037273;28;20207;-48
2023/05/28 05:00:03;;;;;;;0.50;0.50;;;18.60;55.00;;;18.71;40.17;95180.78;5037468;28;20195;-49
2023/05/28 05:02:32;;;;;;;0.50;0.50;;;18.70;55.20;;;18.72;40.22;95178.91;5054732;28;20443;-48
2023/05/28 05:04:59;;;;;;;0.40;0.40;;;18.70;55.30;;;18.72;40.11;95173.59;5054604;28;20219;-48
2023/05/28 05:07:28;;;;;;;0.50;0.50;;;18.60;55.10;;;18.72;39.74;95177.06;5037746;28;20199;-48
2023/05/28 05:09:56;;;;;;;0.50;0.50;;;18.70;55.20;;;18.72;39.81;95177.06;5037340;28;20203;-49
2023/05/28 05:12:23;;;;;;;0.40;0.40;;;18.70;55.30;;;18.75;40.16;95182.94;5037276;28;20207;-48
2023/05/28 05:14:50;;;;;;;0.50;0.50;;;18.70;55.30;;;18.75;40.11;95181.09;5054942;28;20249;-48
2023/05/28 05:17:17;;;;;;;0.40;0.40;;;18.70;55.40;;;18.77;40.02;95184.31;5054668;28;20653;-48
2023/05/28 05:19:44;;;;;;;0.50;0.50;;;18.70;55.40;;;18.77;40.02;95176.34;5037261;28;20305;-48
2023/05/28 05:22:12;;;;;;;0.50;0.50;;;18.70;55.50;;;18.78;40.18;95175.31;5037445;28;20630;-48
2023/05/28 05:24:41;;;;;;;0.50;0.50;;;18.70;55.40;;;18.78;39.93;95175.31;5053935;28;20261;-48
2023/05/28 05:27:08;;;;;;;0.50;0.50;;;18.70;55.50;;;18.80;40.19;95173.22;5036974;28;20272;-49
2023/05/28 05:29:35;;;;;;;0.50;0.50;;;18.70;55.50;;;18.80;40.33;95180.41;5054665;28;20201;-50
2023/05/28 05:32:02;;;;;;;0.55;0.55;;;18.80;55.70;;;18.82;40.06;95178.28;5037268;28;20205;-48
2023/05/28 05:34:30;;;;;;;0.50;0.50;;;18.80;55.70;;;18.82;40.54;95176.47;5037010;28;20219;-52
2023/05/28 05:37:17;;;;;;;0.45;0.45;;;18.80;55.70;;;18.82;40.37;95176.47;5037046;28;20207;-48
2023/05/28 05:40:06;;;;;;;0.50;0.50;;;18.80;55.70;;;18.83;40.47;95178.06;5055241;28;20649;-49
2023/05/28 05:42:51;;;;;;;0.40;0.40;;;18.80;55.90;;;18.83;40.06;95170.06;5054956;28;20225;-48
2023/05/28 05:45:19;;;;;;;0.52;0.52;;;18.80;55.70;;;18.86;40.00;95179.47;5037048;28;20222;-49
2023/05/28 05:47:46;;;;;;;0.50;0.50;;;18.80;55.70;;;18.87;40.60;95173.91;5036829;28;20207;-48
2023/05/28 05:50:13;;;;;;;0.50;0.50;;;18.80;55.70;;;18.90;40.18;95169.94;5020713;28;20203;-48
2023/05/28 05:52:42;;;;;;;0.50;0.50;;;18.80;55.70;;;18.90;40.50;95172.59;5037014;28;20230;-48
2023/05/28 05:55:11;;;;;;;0.50;0.50;;;18.90;55.80;;;18.92;40.68;95177.72;5053522;28;20690;-48
2023/05/28 05:57:39;;;;;;;0.30;0.30;;;18.90;55.80;;;18.93;40.46;95174.00;5036978;28;20201;-49
2023/05/28 06:00:08;;;;;;;0.50;0.50;;;18.90;55.90;;;18.94;40.31;95176.44;5037185;28;20618;-48
2023/05/28 06:02:46;;;;;;;0.50;0.50;;;18.90;55.80;;;18.94;40.79;95171.09;5054298;28;20239;-48
2023/05/28 06:05:33;;;;;;;0.45;0.45;;;18.90;55.70;;;18.96;40.32;95169.03;5054924;28;20714;-51
2023/05/28 06:08:18;;;;;;;0.50;0.50;;;18.90;55.80;;;18.96;40.71;95174.34;5055010;28;20499;-48
2023/05/28 06:10:57;;;;;;;0.50;0.50;;;18.90;55.80;;;18.98;40.63;95171.44;5038674;28;20211;-49
2023/05/28 06:13:24;;;;;;;0.60;0.60;;;19.00;55.90;;;18.99;40.29;95170.41;5054900;28;20266;-51
2023/05/28 06:15:51;;;;;;;0.50;0.50;;;18.90;55.90;;;19.02;40.77;95175.25;5054728;28;20184;-50
2023/05/28 06:18:19;;;;;;;0.50;0.50;;;18.90;55.90;;;19.05;40.90;95174.75;5040054;28;20195;-52
2023/05/28 06:20:46;;;;;;;0.47;0.47;;;19.00;56.00;;;19.07;40.74;95177.19;5040584;28;20191;-52
2023/05/28 06:23:14;;;;;;;0.40;0.40;;;19.00;56.10;;;19.07;40.83;95178.00;5057046;28;20204;-50
2023/05/28 06:25:41;;;;;;;0.55;0.55;;;19.00;56.10;;;19.09;40.46;95175.09;5040183;28;20202;-50
2023/05/28 06:28:09;;;;;;;0.50;0.50;;;19.00;56.10;;;19.10;41.01;95174.84;5056742;28;20200;-52
2023/05/28 06:30:38;;;;;;;0.50;0.50;;;19.00;56.00;;;19.13;40.89;95176.25;5040371;28;20199;-53
2023/05/28 06:33:05;;;;;;;0.40;0.40;;;19.10;56.20;;;19.15;40.93;95176.78;5039986;28;20200;-48
2023/05/28 06:35:33;;;;;;;0.50;0.50;;;19.10;56.20;;;19.16;40.46;95175.75;5057742;28;20288;-52
2023/05/28 06:38:01;;;;;;;0.30;0.30;;;19.10;56.20;;;19.17;40.92;95182.69;5039752;28;20191;-50
2023/05/28 06:40:28;;;;;;;0.40;0.40;;;19.10;56.20;;;19.19;41.13;95184.06;5023619;28;20261;-50
2023/05/28 06:42:55;;;;;;;0.60;0.60;;;19.10;56.30;;;19.21;40.76;95175.84;5039898;28;20231;-47
2023/05/28 06:45:44;;;;;;;0.60;0.60;;;19.10;56.30;;;19.23;40.65;95178.28;5039826;28;20193;-47
2023/05/28 06:48:12;;;;;;;0.70;0.70;;;19.10;56.20;;;19.25;41.22;95178.81;5039650;28;20200;-48
2023/05/28 06:50:39;;;;;;;0.40;0.40;;;19.20;56.40;;;19.27;41.13;95174.06;5057284;28;20191;-47
2023/05/28 06:53:07;;;;;;;0.40;0.40;;;19.20;56.50;;;19.30;40.97;95168.28;5039654;28;20658;-47
2023/05/28 06:55:34;;;;;;;0.40;0.40;;;19.20;56.50;;;19.32;41.12;95163.53;5039557;28;20229;-47
2023/05/28 06:58:22;;;;;;;0.50;0.50;;;19.20;56.50;;;19.34;40.92;95175.53;5056378;28;20202;-48
2023/05/28 07:01:09;;;;;;;0.50;0.50;;;19.30;56.70;;;19.38;40.99;95175.06;5043274;28;20573;-48
2023/05/28 07:04:00;;;;;;;0.43;0.43;;;19.30;56.60;;;19.39;40.87;95174.81;5048796;28;20290;-47
2023/05/28 07:06:34;;;;;;;0.40;0.40;;;19.40;56.80;;;19.43;41.25;95175.13;5055853;28;20284;-48
2023/05/28 07:09:01;;;;;;;0.65;0.65;;;19.40;56.70;;;19.45;41.15;95173.06;5057457;28;20193;-48
2023/05/28 07:11:28;;;;;;;0.40;0.40;;;19.40;56.80;;;19.48;40.81;95172.56;5039318;28;20199;-49
2023/05/28 07:13:55;;;;;;;0.50;0.50;;;19.40;56.80;;;19.50;41.06;95163.28;5056796;28;20226;-49
2023/05/28 07:16:24;;;;;;;0.50;0.50;;;19.40;56.90;;;19.55;40.87;95172.41;5039014;28;20556;-48
2023/05/28 07:18:51;;;;;;;0.50;0.50;;;19.40;58.10;;;19.56;41.39;95169.50;5039203;28;20203;-49
2023/05/28 07:21:19;;;;;;;0.50;0.50;;;19.40;56.80;;;19.60;41.43;95172.47;5056590;28;20211;-48
2023/05/28 07:23:47;;;;;;;0.50;0.50;;;19.50;56.90;;;19.62;41.41;95170.41;5039065;28;20200;-49
2023/05/28 07:26:14;;;;;;;0.50;0.50;;;19.50;56.80;;;19.63;40.62;95170.16;5037763;28;20631;-49
2023/05/28 07:28:42;;;;;;;0.40;0.40;;;19.50;56.70;;;19.65;41.10;95170.72;5044508;28;20398;-53
2023/05/28 07:31:09;;;;;;;0.50;0.50;;;19.50;56.60;;;19.68;41.16;95170.22;5045151;28;20248;-53
2023/05/28 07:33:36;;;;;;;0.30;0.30;;;19.60;56.70;;;19.72;41.05;95169.75;5036283;28;20189;-48
2023/05/28 07:36:04;;;;;;;0.60;0.60;;;19.60;56.80;;;19.75;41.27;95166.59;5022208;28;20685;-48
2023/05/28 07:38:33;;;;;;;0.50;0.50;;;19.60;56.70;;;19.78;40.79;95166.91;5038252;28;20207;-48
2023/05/28 07:41:01;;;;;;;0.40;0.40;;;19.60;56.70;;;19.81;40.81;95165.59;5036666;28;20196;-51
2023/05/28 07:43:50;;;;;;;0.45;0.45;;;19.70;56.90;;;19.82;41.31;95164.56;5029211;28;20204;-48
2023/05/28 07:46:24;;;;;;;0.60;0.60;;;19.70;56.90;;;19.87;41.17;95163.88;5024937;28;20196;-53
2023/05/28 07:48:57;;;;;;;0.50;0.50;;;19.70;56.80;;;19.89;41.04;95159.91;5038873;28;20192;-52
2023/05/28 07:51:38;;;;;;;0.43;0.43;;;19.80;56.90;;;19.92;40.76;95163.94;5035159;28;20304;-49
2023/05/28 07:54:11;;;;;;;0.50;0.50;;;19.80;56.80;;;19.95;41.33;95161.59;5023800;28;20219;-52
2023/05/28 07:56:41;;;;;;;0.50;0.50;;;19.80;56.80;;;19.97;40.93;95164.81;5047278;28;20199;-49
2023/05/28 07:59:11;;;;;;;0.50;0.50;;;19.90;56.90;;;20.00;40.91;95160.88;5018217;28;20291;-49
2023/05/28 08:01:43;;;;;;;0.50;0.50;;;19.90;57.00;;;20.04;41.06;95153.19;5025236;28;20281;-49
2023/05/28 08:04:10;;;;;;;0.68;0.68;;;19.90;56.90;;;20.07;41.17;95153.50;5027198;28;20295;-50
2023/05/28 08:06:39;;;;;;;0.40;0.40;;;19.90;56.90;;;20.11;40.97;95156.47;5030042;28;20195;-49
2023/05/28 08:09:10;;;;;;;0.50;0.50;;;20.00;57.00;;;20.14;40.96;95156.78;5019945;28;20207;-51
2023/05/28 08:11:38;;;;;;;0.60;0.60;;;20.00;56.90;;;20.15;40.79;95153.09;5026356;28;20588;-53
2023/05/28 08:14:06;;;;;;;0.30;0.30;;;20.00;56.90;;;20.20;40.94;95155.03;5020532;28;20207;-52
2023/05/28 08:16:35;;;;;;;0.40;0.40;;;20.10;56.80;;;20.22;41.10;95144.91;5020398;28;20573;-53
2023/05/28 08:19:21;;;;;;;0.60;0.60;;;20.10;56.70;;;20.25;41.05;95146.25;5040552;28;20204;-50
2023/05/28 08:21:52;;;;;;;0.50;0.50;;;20.10;57.80;;;20.26;40.71;95145.22;5035716;28;20213;-52
2023/05/28 08:24:20;;;;;;;0.50;0.50;;;20.10;56.60;;;20.30;41.11;95143.69;5038765;28;20211;-52
2023/05/28 08:26:51;;;;;;;0.50;0.50;;;20.10;56.60;;;20.33;40.85;95140.50;5018653;28;20246;-53
2023/05/28 08:29:19;;;;;;;0.50;0.50;;;20.20;56.60;;;20.37;40.64;95146.94;5037777;28;20211;-49
2023/05/28 08:31:54;;;;;;;0.70;0.70;;;20.30;56.70;;;20.40;40.65;95146.47;5036332;28;20186;-49
2023/05/28 08:34:29;;;;;;;0.60;0.60;;;20.20;56.60;;;20.42;40.63;95141.69;5024961;28;20230;-49
2023/05/28 08:36:56;;;;;;;0.50;0.50;;;20.30;56.70;;;20.45;40.91;95135.06;5018186;28;20210;-49
2023/05/28 08:39:31;;;;;;;0.50;0.50;;;20.30;56.60;;;20.48;40.41;95130.06;5017418;28;20196;-48
2023/05/28 08:41:58;;;;;;;0.40;0.40;;;20.40;56.70;;;20.51;40.84;95131.41;5017911;28;20638;-49
2023/05/28 08:44:25;;;;;;;0.50;0.50;;;20.40;56.70;;;20.54;40.43;95136.22;5017969;28;20203;-49
2023/05/28 08:46:55;;;;;;;0.45;0.45;;;20.40;56.70;;;20.56;40.74;95131.47;5017791;28;20203;-49
2023/05/28 08:49:41;;;;;;;0.40;0.40;;;20.40;56.70;;;20.59;40.84;95130.97;5018174;28;20237;-50
2023/05/28 08:52:12;;;;;;;0.60;0.60;;;20.40;56.70;;;20.62;40.95;95140.31;5034626;28;20390;-51
2023/05/28 08:54:40;;;;;;;0.50;0.50;;;20.50;56.70;;;20.65;40.63;95134.47;5035012;28;20276;-49
2023/05/28 08:57:10;;;;;;;0.50;0.50;;;20.50;56.70;;;20.68;40.93;95133.16;5040997;28;20652;-50
2023/05/28 08:59:55;;;;;;;0.50;0.50;;;20.50;56.70;;;20.71;40.92;95135.34;5036455;28;20218;-49
2023/05/28 09:02:25;;;;;;;0.60;0.60;;;20.60;56.70;;;20.73;40.49;95128.75;5037213;28;20231;-49
2023/05/28 09:04:53;;;;;;;0.50;0.50;;;20.60;56.50;;;20.76;40.78;95128.25;5054856;28;20662;-49
2023/05/28 09:07:20;;;;;;;0.43;0.43;;;20.60;56.50;;;20.79;40.84;95132.28;5037610;28;20204;-49
2023/05/28 09:09:53;;;;;;;0.40;0.40;;;20.60;56.40;;;20.82;40.35;95121.09;5037944;28;20621;-50
2023/05/28 09:12:21;;;;;;;0.40;0.40;;;20.70;56.50;;;20.85;40.82;95125.94;5054804;28;20540;-49
2023/05/28 09:14:54;;;;;;;0.40;0.40;;;20.70;56.60;;;20.86;40.35;95122.22;5038335;28;20219;-49
2023/05/28 09:17:52;;;;;;;0.50;0.50;;;20.70;58.00;;;20.88;40.87;95120.09;5033690;28;20539;-51
2023/05/28 09:20:24;;;;;;;0.60;0.60;;;20.70;56.60;;;20.91;40.63;95118.78;5033882;28;20220;-51
2023/05/28 09:23:00;;;;;;;0.40;0.40;;;20.80;56.70;;;20.94;40.50;95112.94;5037651;28;20646;-49
2023/05/28 09:25:46;;;;;;;0.40;0.40;;;20.80;56.70;;;20.94;40.22;95115.63;5048762;28;20194;-53
2023/05/28 09:28:18;;;;;;;0.50;0.50;;;20.80;56.60;;;20.99;40.20;95122.88;5036996;28;20527;-54
2023/05/28 09:30:45;;;;;;;0.30;0.30;;;20.80;56.50;;;21.02;40.45;95112.50;5054452;28;20586;-51
2023/05/28 09:33:13;;;;;;;0.40;0.40;;;20.90;56.60;;;21.06;40.39;95110.94;5054407;28;20662;-49
2023/05/28 09:35:40;;;;;;;0.50;0.50;;;20.90;56.60;;;21.08;40.47;95106.16;5046953;28;20208;-51
2023/05/28 09:38:11;;;;;;;0.40;0.40;;;20.90;56.60;;;21.11;40.17;95104.84;5037489;28;20289;-50
2023/05/28 09:40:43;;;;;;;0.40;0.40;;;20.90;56.50;;;21.15;40.67;95102.47;5034861;28;20246;-49
2023/05/28 09:43:10;;;;;;;0.50;0.50;;;21.00;56.50;;;21.18;40.43;95104.63;5034940;28;20184;-50
2023/05/28 09:45:38;;;;;;;0.40;0.40;;;21.00;56.30;;;21.20;40.04;95098.00;5044168;28;20219;-52
2023/05/28 09:48:05;;;;;;;0.50;0.50;;;21.00;56.20;;;21.24;40.16;95095.63;5053764;28;20204;-54
2023/05/28 09:50:32;;;;;;;0.50;0.50;;;21.00;56.00;;;21.26;39.79;95107.66;5040860;28;20205;-49
2023/05/28 09:53:01;;;;;;;0.45;0.45;;;21.10;56.10;;;21.30;40.16;95102.59;5039558;28;20262;-50
2023/05/28 09:55:30;;;;;;;0.50;0.50;;;21.10;56.00;;;21.32;40.04;95095.13;5021343;28;20224;-50
2023/05/28 09:58:03;;;;;;;0.50;0.50;;;21.10;56.00;;;21.34;40.17;95101.03;5038307;28;20200;-50
2023/05/28 10:00:31;;;;;;;0.50;0.50;;;21.10;55.90;;;21.37;39.74;95105.03;5038210;28;20200;-52
2023/05/28 10:03:37;;;;;;;0.50;0.50;;;21.20;56.00;;;21.36;39.96;95103.44;5038102;28;20241;-53
2023/05/28 10:06:11;;;;;;;0.40;0.40;;;21.20;55.60;;;21.39;39.87;95106.41;5028946;28;20214;-50
2023/05/28 10:08:39;;;;;;;0.40;0.40;;;21.20;55.50;;;21.40;39.75;95097.34;5030789;28;20208;-53
2023/05/28 10:11:12;;;;;;;0.40;0.40;;;21.20;55.40;;;21.42;39.19;95097.91;5038069;28;20215;-54
2023/05/28 10:13:41;;;;;;;0.40;0.40;;;21.30;55.30;;;21.45;39.30;95099.25;5037345;28;20196;-54
2023/05/28 10:16:08;;;;;;;0.50;0.50;;;21.30;55.40;;;21.47;39.39;95098.97;5021229;28;20755;-49
2023/05/28 10:18:36;;;;;;;0.30;0.30;;;21.30;55.30;;;21.50;39.42;95101.16;5038077;28;20226;-49
2023/05/28 10:21:07;;;;;;;0.50;0.50;;;21.30;55.20;;;21.51;39.36;95100.09;5038210;28;20192;-51
2023/05/28 10:23:36;;;;;;;0.60;0.60;;;21.30;55.10;;;21.53;39.18;95095.28;5037030;28;20288;-50
2023/05/28 10:26:04;;;;;;;0.40;0.40;;;21.30;54.90;;;21.56;39.21;95092.94;5037831;28;20329;-50
2023/05/28 10:28:31;;;;;;;0.40;0.40;;;21.40;55.00;;;21.58;39.15;95100.69;5037939;28;20278;-50
2023/05/28 10:31:06;;;;;;;0.50;0.50;;;21.40;55.00;;;21.59;39.19;95087.09;5020600;28;20240;-51